Capitol Logistics 333


KHRL
Valley International Airport
Harlingen, Texas, US
KAUS
Austin-Bergstrom International Airport
Austin, Texas, US

Activity Log

Date Flight Route Aircraft Duration
11/30/2018 CPX339 CRP HOOLR DXEEE1 B752 1h 01m

Route Details

Aircraft Information
Primary: Boeing 767-300BDSF
Backup: Not Available
Route Data
Distance: 273nm
Sched. Duration: 1h 00m
Avg. Duration: 1h 01m (+1m)
Times Flown: 1
Recm'd Route: CRP PCKIT
Planned Altitude: 28,000ft
Origin Wx: KHRL 280952Z AUTO 00000KT 10SM CLR 04/02 A3034 RMK AO2 SLP274 T00440017 $
Dest. Wx: KAUS 280953Z 22006KT 10SM FEW250 06/M03 A3032 RMK AO2 SLP266 T00561028
Notes:

Financial History
Total Freight: 58,189lbs
Average Load: 58,189lbs/flt
Fuel Used: 8,263lbs
Avg. Fuel Used: 8,263lbs/flt
Fuel Expense: $5,206
Avg. Fuel Expense: $5,206
Avg. Fuel Cost: $0.63/lbs
Total Gross Income: $72,154
Pilot Pay: $149
Total Expenses: $7,845
Total Revenue: $58,861
Average Revenue: $72,154.40